Terminal Aerodrome Forecast
Issued by NWS

Current Version | Previous Version | Graphics & Text | Print | Product List | Glossary On
Versions: 1 2 3 4 5 6 7 8 9 10 11 12 13 14 15 16 17 18 19 20 21 22 23 24 25 26 27 28 29 30 31 32
562
FTUS41 KRNK 131735
TAFLWB
TAF
KLWB 131735Z 1318/1418 26010KT P6SM SCT120
     FM140000 20007KT P6SM SCT060 BKN100
     FM140500 26012G21KT P6SM -SHSN SCT025 BKN040
     FM141400 30013G23KT P6SM BKN040=

USA.gov is the U.S. government's official web portal to all federal, state and local government web resources and services.